Portada
METAR-TAF:

METAR-TAF

Aeropuertos :

Ghriss, Argelia

latitud: 35-12N, longitud: 000-08E, altitud: 514 m

Observación

El informe se hizo hace 20 horas y 3 minutos, a las 15:00 UTC
Viento 2 kt del oeste-suroeste
Temperatura 15°C
Humedad 67%
Presión 1013 hPa
Visibilidad 10 km o más
Cielo nuboso a una altura de 2300 ft

METAR: DAOV 201500Z 25002KT 9999 BKN023 15/09 Q1013

Hora: 12:03 (11:03 UTC)

Pronóstico

El informe se hizo hace 21 horas y 3 minutos, a las 14:00 UTC
Pronóstico válido del 20 a las 15 UTC al 20 a las 24 UTC
Viento 10 kt del oeste-noroeste
Visibilidad 10 km o más
Cielo nuboso a una altura de 2300 ft
Evolucionando progresivamente
del 20 a las 20 UTC al 20 a las 23 UTC
Viento 2 kt con dirección variable

TAF: DAOV 201400Z 2015/2024 30010KT 9999 BKN023 BECMG 2020/2023 VRB02KT

Observaciones y pronósticos meteorológicos de más de 4000 aeropuertos (mensajes METAR y TAF).

Los puntos amarillos y rojos representan las estaciones disponibles.

Ponga el ratón en el punto deseado para ver el nombre de la estación.

Haga clic para ver las observaciones y los pronósticos meteorológicos.

Para cambiar el mapa : haga clic en los botones verdes con una cruz de color negro para hacer un zoom, en el botón verde con un guión para alejar o en las flechas verdes para mapas adyacentes.


METAR-TAF: